Glacier National Park, MT

1:24 AM MDT op 31 juli 2014 (GMT -0600)
MesoWest Two Medicine Bridge US-2 MP 210. MT US MT DOT (MMTBRN) Hoogte 4750 ft | 48.45 °N, 113.20 °W | Change Station

Current weather conditions updated 44 minutes ago

Clear
Helder
68 °F
Voelt als 68 °F
N
7
Wind Variabel Wind van WZW
Gusts 9.0 mijl/u

Er wordt verwacht dat het vandaag warmer is dan gisteren. In de middag ontwikkelen zich onweersbuien..

Vandaag
Hoog -- | Laag -- °F
--% Kans op neerslag
Gisteren
Hoog -- | Laag -- °F
Precip. -- inches
6:06 AM 9:13 PM
Wassende halvemaan, 16% visible
Druk 30.02 inches
Zicht 10.0 mijlen
Wolken Helder
Dauwpunt 37 °F
Vochtigheid 32%
Neerslag 0.00 inches
Dikte sneeuw Niet beschikbaar.
UV 0 van de 12
Pollen 2.20 van de 12
Luchtkwaliteit Niet beschikbaar.
Flu Activity Niet beschikbaar.
METAR KCTB 310656Z AUTO 00000KT 10SM CLR 19/05 A3014 RMK AO2 SLP165 T01890050 403390100

More Conditions Fewer Conditions

Druk 30.02 inches
Zicht 10.0 mijlen
Wolken Helder
Dauwpunt 37 °F
Vochtigheid 32%
Neerslag 0.00 inches
Dikte sneeuw Niet beschikbaar.
UV 0 van de 12
Pollen 2.20 van de 12
Luchtkwaliteit Niet beschikbaar.
Flu Activity Niet beschikbaar.
METAR KCTB 310656Z AUTO 00000KT 10SM CLR 19/05 A3014 RMK AO2 SLP165 T01890050 403390100

More Conditions Fewer Conditions

10-Day Weather Forecast

Almanac

Astronomie

Jul. 31, 2014 Opkomst Ondergang
Werkelijke tijd 6:06 AM MDT 9:13 PM MDT
Burgerlijke schemering 5:29 AM MDT 9:50 PM MDT
Nautische schemering 4:40 AM MDT 10:38 PM MDT
Astronomische schemering 3:39 AM MDT 11:38 PM MDT
Maan 11:04 AM MDT 10:59 PM MDT
Golflengte van het zichtbare licht 16h 20m
Daglengte
15h 06m
Tomorrow will be 2m 47s shorter.
Wassende halvemaan, 16% of the Moon is Illuminated
Vandaag
Wassende halvemaan
aug 3
Eerste kwartier
aug 10
Volle maan
aug 17
Laatste kwartier
aug 25
Nieuw

Extremen vandaag

State Highs State Lows

Community

WunderPhotos

Upload Photos

1,739,257 foto’s ge-upload!

Nearby

Dikte sneeuw

Station Depth Geometrische hoogte
Emery Creek 1 in 4350 ft
Badger Pass 0 in 6900 ft
Dupuyer Creek 0 in 5750 ft
Waldron 1 in 5600 ft
Wood Creek 0 in 5960 ft

Aardbevingen

Stad Distance Mag. Time & Date
No recent earthquake activity has been reported nearby.
Minimum magnitude displayed is 2.5.

Watertemperatuur langs de kust

Plaats Temperatuur
Geen meldingen van stations

Nabije weerstations

Locatie station Temp. Dauwpunt Vochtigheid Wind Precip. Hoogte Geactualiseerd Type
MesoWest Two Medicine Bridge US-2 MP 210, Browning, MT 68 °F 37 °F 32% WZW  op  7 mijl/u 0.00 inches / hr 4750 ft 12:40 AM MDT MADIS
HADS WEST GLACIER PARK 1N MT, West Glacier, MT 62 °F - - noord  op  - 0.00 inches / hr 3153 ft 12:45 AM MDT MADIS

Show More Stations Show Fewer Stations